sensor_id;sensor_type;location;lat;lon;timestamp;temperature;humidity
5842;DHT22;2947;52.276;9.946;2023-07-09T00:02:25;22.90;18.80
5842;DHT22;2947;52.276;9.946;2023-07-09T00:04:51;22.90;18.30
5842;DHT22;2947;52.276;9.946;2023-07-09T00:07:32;22.80;17.50
5842;DHT22;2947;52.276;9.946;2023-07-09T00:09:59;22.80;18.20
5842;DHT22;2947;52.276;9.946;2023-07-09T00:12:25;22.70;19.50
5842;DHT22;2947;52.276;9.946;2023-07-09T00:14:51;22.70;18.70
5842;DHT22;2947;52.276;9.946;2023-07-09T00:17:23;22.70;19.80
5842;DHT22;2947;52.276;9.946;2023-07-09T00:19:52;22.50;19.50
5842;DHT22;2947;52.276;9.946;2023-07-09T00:22:18;22.50;19.40
5842;DHT22;2947;52.276;9.946;2023-07-09T00:24:49;22.70;20.50
5842;DHT22;2947;52.276;9.946;2023-07-09T00:27:20;22.40;20.70
5842;DHT22;2947;52.276;9.946;2023-07-09T00:29:46;22.40;21.90
5842;DHT22;2947;52.276;9.946;2023-07-09T00:32:17;22.30;20.60
5842;DHT22;2947;52.276;9.946;2023-07-09T00:34:46;23.30;23.60
5842;DHT22;2947;52.276;9.946;2023-07-09T00:37:17;22.30;22.90
5842;DHT22;2947;52.276;9.946;2023-07-09T00:39:48;23.10;25.30
5842;DHT22;2947;52.276;9.946;2023-07-09T00:42:16;22.10;24.20
5842;DHT22;2947;52.276;9.946;2023-07-09T00:44:51;22.20;24.30
5842;DHT22;2947;52.276;9.946;2023-07-09T00:47:28;22.10;25.10
5842;DHT22;2947;52.276;9.946;2023-07-09T00:50:20;22.10;26.90
5842;DHT22;2947;52.276;9.946;2023-07-09T00:53:00;22.00;25.90
5842;DHT22;2947;52.276;9.946;2023-07-09T00:55:38;21.90;25.80
5842;DHT22;2947;52.276;9.946;2023-07-09T00:58:09;21.90;26.80
5842;DHT22;2947;52.276;9.946;2023-07-09T01:00:45;21.90;27.20
5842;DHT22;2947;52.276;9.946;2023-07-09T01:03:20;21.90;28.20
5842;DHT22;2947;52.276;9.946;2023-07-09T01:05:52;21.80;28.30
5842;DHT22;2947;52.276;9.946;2023-07-09T01:08:20;21.70;27.60
5842;DHT22;2947;52.276;9.946;2023-07-09T01:10:46;21.70;28.60
5842;DHT22;2947;52.276;9.946;2023-07-09T01:13:13;21.70;29.40
5842;DHT22;2947;52.276;9.946;2023-07-09T01:15:39;21.60;30.90
5842;DHT22;2947;52.276;9.946;2023-07-09T01:18:06;21.60;32.80
5842;DHT22;2947;52.276;9.946;2023-07-09T01:20:33;21.60;33.00
5842;DHT22;2947;52.276;9.946;2023-07-09T01:22:59;21.60;33.00
5842;DHT22;2947;52.276;9.946;2023-07-09T01:25:26;19.70;33.30
5842;DHT22;2947;52.276;9.946;2023-07-09T01:27:54;21.60;34.70
5842;DHT22;2947;52.276;9.946;2023-07-09T01:30:28;21.50;34.30
5842;DHT22;2947;52.276;9.946;2023-07-09T01:32:59;21.50;35.70
5842;DHT22;2947;52.276;9.946;2023-07-09T01:35:27;21.50;37.70
5842;DHT22;2947;52.276;9.946;2023-07-09T01:37:55;22.10;39.70
5842;DHT22;2947;52.276;9.946;2023-07-09T01:40:22;21.40;52.80
5842;DHT22;2947;52.276;9.946;2023-07-09T01:42:51;21.40;37.20
5842;DHT22;2947;52.276;9.946;2023-07-09T01:45:17;21.20;36.90
5842;DHT22;2947;52.276;9.946;2023-07-09T01:47:43;21.20;35.90
5842;DHT22;2947;52.276;9.946;2023-07-09T01:50:09;21.20;37.00
5842;DHT22;2947;52.276;9.946;2023-07-09T01:52:38;21.20;39.20
5842;DHT22;2947;52.276;9.946;2023-07-09T01:55:09;21.20;39.80
5842;DHT22;2947;52.276;9.946;2023-07-09T01:57:36;21.10;39.20
5842;DHT22;2947;52.276;9.946;2023-07-09T02:00:07;21.20;40.40
5842;DHT22;2947;52.276;9.946;2023-07-09T02:02:43;21.00;43.10
5842;DHT22;2947;52.276;9.946;2023-07-09T02:05:12;20.90;42.30
5842;DHT22;2947;52.276;9.946;2023-07-09T02:07:39;21.60;46.20
5842;DHT22;2947;52.276;9.946;2023-07-09T02:10:06;20.90;46.80
5842;DHT22;2947;52.276;9.946;2023-07-09T02:12:32;20.80;48.50
5842;DHT22;2947;52.276;9.946;2023-07-09T02:14:58;20.70;52.00
5842;DHT22;2947;52.276;9.946;2023-07-09T02:17:24;21.10;51.50
5842;DHT22;2947;52.276;9.946;2023-07-09T02:19:49;20.70;52.60
5842;DHT22;2947;52.276;9.946;2023-07-09T02:22:15;20.70;52.60
5842;DHT22;2947;52.276;9.946;2023-07-09T02:24:41;20.70;53.50
5842;DHT22;2947;52.276;9.946;2023-07-09T02:27:08;20.60;54.10
5842;DHT22;2947;52.276;9.946;2023-07-09T02:29:36;20.60;57.50
5842;DHT22;2947;52.276;9.946;2023-07-09T02:32:03;20.60;62.00
5842;DHT22;2947;52.276;9.946;2023-07-09T02:34:30;20.50;79.00
5842;DHT22;2947;52.276;9.946;2023-07-09T02:36:57;20.50;91.40
5842;DHT22;2947;52.276;9.946;2023-07-09T02:39:23;20.50;73.10
5842;DHT22;2947;52.276;9.946;2023-07-09T02:41:50;20.40;74.30
5842;DHT22;2947;52.276;9.946;2023-07-09T02:44:16;20.40;75.40
5842;DHT22;2947;52.276;9.946;2023-07-09T02:46:43;20.90;75.90
5842;DHT22;2947;52.276;9.946;2023-07-09T02:49:10;20.40;77.80
5842;DHT22;2947;52.276;9.946;2023-07-09T02:51:37;20.40;83.20
5842;DHT22;2947;52.276;9.946;2023-07-09T02:54:04;20.30;88.00
5842;DHT22;2947;52.276;9.946;2023-07-09T02:56:31;20.30;85.90
5842;DHT22;2947;52.276;9.946;2023-07-09T02:58:57;20.20;88.60
5842;DHT22;2947;52.276;9.946;2023-07-09T03:01:23;20.80;93.00
5842;DHT22;2947;52.276;9.946;2023-07-09T03:03:55;20.00;94.60
5842;DHT22;2947;52.276;9.946;2023-07-09T03:06:23;20.00;99.60
5842;DHT22;2947;52.276;9.946;2023-07-09T03:08:50;19.90;99.90
5842;DHT22;2947;52.276;9.946;2023-07-09T03:11:17;20.00;99.90
5842;DHT22;2947;52.276;9.946;2023-07-09T03:13:43;19.90;99.90
5842;DHT22;2947;52.276;9.946;2023-07-09T03:16:10;20.80;99.90
5842;DHT22;2947;52.276;9.946;2023-07-09T03:18:36;19.80;99.90
5842;DHT22;2947;52.276;9.946;2023-07-09T03:21:02;19.90;99.90
5842;DHT22;2947;52.276;9.946;2023-07-09T03:23:28;19.80;99.90
5842;DHT22;2947;52.276;9.946;2023-07-09T03:25:55;20.00;99.90
5842;DHT22;2947;52.276;9.946;2023-07-09T03:28:21;20.70;99.90
5842;DHT22;2947;52.276;9.946;2023-07-09T03:30:48;19.70;99.90
5842;DHT22;2947;52.276;9.946;2023-07-09T03:33:16;19.80;99.90
5842;DHT22;2947;52.276;9.946;2023-07-09T03:35:42;19.70;99.90
5842;DHT22;2947;52.276;9.946;2023-07-09T03:38:10;19.80;99.90
5842;DHT22;2947;52.276;9.946;2023-07-09T03:40:36;19.80;99.90
5842;DHT22;2947;52.276;9.946;2023-07-09T03:43:03;20.60;99.90
5842;DHT22;2947;52.276;9.946;2023-07-09T03:45:30;19.70;99.90
5842;DHT22;2947;52.276;9.946;2023-07-09T03:47:57;19.70;99.90
5842;DHT22;2947;52.276;9.946;2023-07-09T03:50:23;19.80;99.90
5842;DHT22;2947;52.276;9.946;2023-07-09T03:52:48;19.70;99.90
5842;DHT22;2947;52.276;9.946;2023-07-09T03:55:14;19.80;99.90
5842;DHT22;2947;52.276;9.946;2023-07-09T03:57:40;19.70;99.90
5842;DHT22;2947;52.276;9.946;2023-07-09T04:00:06;19.70;99.90
5842;DHT22;2947;52.276;9.946;2023-07-09T04:02:36;19.70;99.90
5842;DHT22;2947;52.276;9.946;2023-07-09T04:05:03;19.70;99.90
5842;DHT22;2947;52.276;9.946;2023-07-09T04:07:29;19.70;99.90
5842;DHT22;2947;52.276;9.946;2023-07-09T04:09:55;19.70;99.90
5842;DHT22;2947;52.276;9.946;2023-07-09T04:12:21;19.70;99.90
5842;DHT22;2947;52.276;9.946;2023-07-09T04:14:46;19.80;99.90
5842;DHT22;2947;52.276;9.946;2023-07-09T04:17:12;20.30;99.90
5842;DHT22;2947;52.276;9.946;2023-07-09T04:19:38;19.70;99.90
5842;DHT22;2947;52.276;9.946;2023-07-09T04:22:04;19.80;99.90
5842;DHT22;2947;52.276;9.946;2023-07-09T04:24:30;19.70;99.90
5842;DHT22;2947;52.276;9.946;2023-07-09T04:26:57;19.70;99.90
5842;DHT22;2947;52.276;9.946;2023-07-09T04:29:23;19.80;99.90
5842;DHT22;2947;52.276;9.946;2023-07-09T04:31:49;19.80;99.90
5842;DHT22;2947;52.276;9.946;2023-07-09T04:34:15;19.90;99.90
5842;DHT22;2947;52.276;9.946;2023-07-09T04:36:41;19.90;99.90
5842;DHT22;2947;52.276;9.946;2023-07-09T04:39:06;19.90;99.90
5842;DHT22;2947;52.276;9.946;2023-07-09T04:41:32;20.50;99.90
5842;DHT22;2947;52.276;9.946;2023-07-09T04:43:58;20.00;99.90
5842;DHT22;2947;52.276;9.946;2023-07-09T04:46:24;20.00;99.90
5842;DHT22;2947;52.276;9.946;2023-07-09T04:48:50;20.00;99.90
5842;DHT22;2947;52.276;9.946;2023-07-09T04:51:15;20.10;99.90
5842;DHT22;2947;52.276;9.946;2023-07-09T04:53:42;20.10;99.90
5842;DHT22;2947;52.276;9.946;2023-07-09T04:56:08;20.50;99.90
5842;DHT22;2947;52.276;9.946;2023-07-09T04:58:34;20.50;99.90
5842;DHT22;2947;52.276;9.946;2023-07-09T05:01:00;20.30;99.90
5842;DHT22;2947;52.276;9.946;2023-07-09T05:03:26;20.30;99.90
5842;DHT22;2947;52.276;9.946;2023-07-09T05:05:52;20.30;99.90
5842;DHT22;2947;52.276;9.946;2023-07-09T05:08:18;20.40;99.90
5842;DHT22;2947;52.276;9.946;2023-07-09T05:10:49;20.40;99.90
5842;DHT22;2947;52.276;9.946;2023-07-09T05:13:17;20.60;99.90
5842;DHT22;2947;52.276;9.946;2023-07-09T05:15:45;20.60;99.90
5842;DHT22;2947;52.276;9.946;2023-07-09T05:18:12;21.30;99.90
5842;DHT22;2947;52.276;9.946;2023-07-09T05:20:40;20.80;99.90
5842;DHT22;2947;52.276;9.946;2023-07-09T05:23:08;21.00;99.90
5842;DHT22;2947;52.276;9.946;2023-07-09T05:25:34;21.00;99.90
5842;DHT22;2947;52.276;9.946;2023-07-09T05:28:00;21.10;99.90
5842;DHT22;2947;52.276;9.946;2023-07-09T05:30:26;21.70;99.90
5842;DHT22;2947;52.276;9.946;2023-07-09T05:32:51;21.50;99.90
5842;DHT22;2947;52.276;9.946;2023-07-09T05:35:19;21.60;99.90
5842;DHT22;2947;52.276;9.946;2023-07-09T05:37:45;21.80;99.90
5842;DHT22;2947;52.276;9.946;2023-07-09T05:40:10;22.00;99.90
5842;DHT22;2947;52.276;9.946;2023-07-09T05:42:36;22.00;99.90
5842;DHT22;2947;52.276;9.946;2023-07-09T05:45:02;22.10;99.90
5842;DHT22;2947;52.276;9.946;2023-07-09T05:47:29;22.10;99.90
5842;DHT22;2947;52.276;9.946;2023-07-09T05:49:54;22.80;99.90
5842;DHT22;2947;52.276;9.946;2023-07-09T05:52:22;22.30;99.90
5842;DHT22;2947;52.276;9.946;2023-07-09T05:54:50;22.60;99.90
5842;DHT22;2947;52.276;9.946;2023-07-09T05:57:17;22.60;99.90
5842;DHT22;2947;52.276;9.946;2023-07-09T05:59:43;22.60;99.90
5842;DHT22;2947;52.276;9.946;2023-07-09T06:02:14;22.60;99.90
5842;DHT22;2947;52.276;9.946;2023-07-09T06:04:41;22.60;99.90
5842;DHT22;2947;52.276;9.946;2023-07-09T06:07:10;22.70;99.90
5842;DHT22;2947;52.276;9.946;2023-07-09T06:09:36;22.70;99.90
5842;DHT22;2947;52.276;9.946;2023-07-09T06:12:03;23.80;99.90
5842;DHT22;2947;52.276;9.946;2023-07-09T06:14:30;23.00;99.90
5842;DHT22;2947;52.276;9.946;2023-07-09T06:16:57;23.20;99.90
5842;DHT22;2947;52.276;9.946;2023-07-09T06:19:24;23.40;99.90
5842;DHT22;2947;52.276;9.946;2023-07-09T06:21:49;23.40;99.90
5842;DHT22;2947;52.276;9.946;2023-07-09T06:24:16;23.50;99.90
5842;DHT22;2947;52.276;9.946;2023-07-09T06:26:41;23.50;99.90
5842;DHT22;2947;52.276;9.946;2023-07-09T06:29:07;23.50;99.90
5842;DHT22;2947;52.276;9.946;2023-07-09T06:31:33;23.60;99.90
5842;DHT22;2947;52.276;9.946;2023-07-09T06:33:59;23.80;99.90
5842;DHT22;2947;52.276;9.946;2023-07-09T06:36:25;24.00;99.90
5842;DHT22;2947;52.276;9.946;2023-07-09T06:38:51;24.10;99.90
5842;DHT22;2947;52.276;9.946;2023-07-09T06:41:16;25.50;99.90
5842;DHT22;2947;52.276;9.946;2023-07-09T06:43:42;24.30;99.90
5842;DHT22;2947;52.276;9.946;2023-07-09T06:46:12;24.40;99.90
5842;DHT22;2947;52.276;9.946;2023-07-09T06:48:38;24.60;99.90
5842;DHT22;2947;52.276;9.946;2023-07-09T06:51:04;24.70;99.90
5842;DHT22;2947;52.276;9.946;2023-07-09T06:53:30;24.80;99.90
5842;DHT22;2947;52.276;9.946;2023-07-09T06:55:56;25.10;99.90
5842;DHT22;2947;52.276;9.946;2023-07-09T06:58:25;25.00;99.90
5842;DHT22;2947;52.276;9.946;2023-07-09T07:00:53;25.00;99.90
5842;DHT22;2947;52.276;9.946;2023-07-09T07:03:21;25.70;99.90
5842;DHT22;2947;52.276;9.946;2023-07-09T07:05:48;25.20;99.90
5842;DHT22;2947;52.276;9.946;2023-07-09T07:08:16;25.90;99.90
5842;DHT22;2947;52.276;9.946;2023-07-09T07:10:50;25.50;99.90
5842;DHT22;2947;52.276;9.946;2023-07-09T07:13:23;25.50;99.90
5842;DHT22;2947;52.276;9.946;2023-07-09T07:15:49;26.00;99.90
5842;DHT22;2947;52.276;9.946;2023-07-09T07:18:15;25.60;99.90
5842;DHT22;2947;52.276;9.946;2023-07-09T07:20:40;25.60;99.90
5842;DHT22;2947;52.276;9.946;2023-07-09T07:23:06;25.60;99.90
5842;DHT22;2947;52.276;9.946;2023-07-09T07:25:32;25.80;99.90
5842;DHT22;2947;52.276;9.946;2023-07-09T07:27:58;26.00;99.90
5842;DHT22;2947;52.276;9.946;2023-07-09T07:30:24;26.40;99.90
5842;DHT22;2947;52.276;9.946;2023-07-09T07:32:50;26.40;99.90
5842;DHT22;2947;52.276;9.946;2023-07-09T07:35:16;26.60;99.90
5842;DHT22;2947;52.276;9.946;2023-07-09T07:37:42;26.80;99.90
5842;DHT22;2947;52.276;9.946;2023-07-09T07:40:09;26.90;99.90
5842;DHT22;2947;52.276;9.946;2023-07-09T07:42:36;27.00;99.90
5842;DHT22;2947;52.276;9.946;2023-07-09T07:45:03;27.20;99.90
5842;DHT22;2947;52.276;9.946;2023-07-09T07:47:29;27.30;99.90
5842;DHT22;2947;52.276;9.946;2023-07-09T07:49:56;27.40;99.90
5842;DHT22;2947;52.276;9.946;2023-07-09T07:52:22;27.40;99.90
5842;DHT22;2947;52.276;9.946;2023-07-09T07:54:49;27.30;99.90
5842;DHT22;2947;52.276;9.946;2023-07-09T07:57:14;27.40;99.90
5842;DHT22;2947;52.276;9.946;2023-07-09T07:59:40;28.30;99.90
5842;DHT22;2947;52.276;9.946;2023-07-09T08:02:11;27.70;99.90
5842;DHT22;2947;52.276;9.946;2023-07-09T08:04:38;27.80;99.90
5842;DHT22;2947;52.276;9.946;2023-07-09T08:07:07;27.90;99.90
5842;DHT22;2947;52.276;9.946;2023-07-09T08:09:34;28.10;99.90
5842;DHT22;2947;52.276;9.946;2023-07-09T08:12:00;28.10;99.90
5842;DHT22;2947;52.276;9.946;2023-07-09T08:14:26;28.30;99.90
5842;DHT22;2947;52.276;9.946;2023-07-09T08:16:52;28.30;99.90
5842;DHT22;2947;52.276;9.946;2023-07-09T08:19:19;28.50;99.90
5842;DHT22;2947;52.276;9.946;2023-07-09T08:21:45;29.20;99.90
5842;DHT22;2947;52.276;9.946;2023-07-09T08:24:12;28.60;99.90
5842;DHT22;2947;52.276;9.946;2023-07-09T08:26:39;28.70;99.90
5842;DHT22;2947;52.276;9.946;2023-07-09T08:29:05;29.10;99.90
5842;DHT22;2947;52.276;9.946;2023-07-09T08:31:31;29.00;99.90
5842;DHT22;2947;52.276;9.946;2023-07-09T08:33:57;29.30;99.90
5842;DHT22;2947;52.276;9.946;2023-07-09T08:36:23;29.50;99.90
5842;DHT22;2947;52.276;9.946;2023-07-09T08:38:49;29.50;99.90
5842;DHT22;2947;52.276;9.946;2023-07-09T08:41:35;29.40;99.90
5842;DHT22;2947;52.276;9.946;2023-07-09T08:49:50;29.90;99.90
5842;DHT22;2947;52.276;9.946;2023-07-09T08:52:36;30.00;99.90
5842;DHT22;2947;52.276;9.946;2023-07-09T08:55:15;30.00;99.90
5842;DHT22;2947;52.276;9.946;2023-07-09T08:58:09;30.20;99.90
5842;DHT22;2947;52.276;9.946;2023-07-09T09:01:05;30.10;99.90
5842;DHT22;2947;52.276;9.946;2023-07-09T09:06:12;30.50;99.90
5842;DHT22;2947;52.276;9.946;2023-07-09T09:11:44;30.80;99.90
5842;DHT22;2947;52.276;9.946;2023-07-09T09:14:30;30.90;99.90
5842;DHT22;2947;52.276;9.946;2023-07-09T09:16:58;30.90;99.90
5842;DHT22;2947;52.276;9.946;2023-07-09T09:19:30;31.00;99.90
5842;DHT22;2947;52.276;9.946;2023-07-09T09:22:06;31.10;99.90
5842;DHT22;2947;52.276;9.946;2023-07-09T09:24:41;31.00;99.90
5842;DHT22;2947;52.276;9.946;2023-07-09T09:27:19;31.30;99.90
5842;DHT22;2947;52.276;9.946;2023-07-09T09:29:44;31.40;99.90
5842;DHT22;2947;52.276;9.946;2023-07-09T09:32:34;31.60;99.90
5842;DHT22;2947;52.276;9.946;2023-07-09T09:35:16;31.70;99.90
5842;DHT22;2947;52.276;9.946;2023-07-09T09:37:54;31.80;99.90
5842;DHT22;2947;52.276;9.946;2023-07-09T09:40:22;31.90;99.90
5842;DHT22;2947;52.276;9.946;2023-07-09T09:42:55;32.00;99.90
5842;DHT22;2947;52.276;9.946;2023-07-09T09:45:27;32.30;99.90
5842;DHT22;2947;52.276;9.946;2023-07-09T09:48:00;32.50;99.90
5842;DHT22;2947;52.276;9.946;2023-07-09T09:50:31;32.50;99.90
5842;DHT22;2947;52.276;9.946;2023-07-09T09:52:59;33.10;99.90
5842;DHT22;2947;52.276;9.946;2023-07-09T09:55:28;32.40;99.90
5842;DHT22;2947;52.276;9.946;2023-07-09T09:57:56;32.60;99.90
5842;DHT22;2947;52.276;9.946;2023-07-09T10:00:25;32.70;99.90
5842;DHT22;2947;52.276;9.946;2023-07-09T10:03:03;32.80;99.90
5842;DHT22;2947;52.276;9.946;2023-07-09T10:05:44;33.10;99.90
5842;DHT22;2947;52.276;9.946;2023-07-09T10:08:31;33.10;99.90
5842;DHT22;2947;52.276;9.946;2023-07-09T10:11:49;33.00;99.90
5842;DHT22;2947;52.276;9.946;2023-07-09T10:15:09;34.40;99.90
5842;DHT22;2947;52.276;9.946;2023-07-09T10:20:36;33.40;99.90
5842;DHT22;2947;52.276;9.946;2023-07-09T10:23:26;33.40;99.90
5842;DHT22;2947;52.276;9.946;2023-07-09T10:29:00;33.40;99.90
5842;DHT22;2947;52.276;9.946;2023-07-09T10:34:52;33.50;99.90
5842;DHT22;2947;52.276;9.946;2023-07-09T10:37:45;33.60;99.90
5842;DHT22;2947;52.276;9.946;2023-07-09T10:40:16;33.90;99.90
5842;DHT22;2947;52.276;9.946;2023-07-09T10:42:46;34.00;99.90
5842;DHT22;2947;52.276;9.946;2023-07-09T10:45:20;35.00;99.90
5842;DHT22;2947;52.276;9.946;2023-07-09T10:47:58;34.30;99.90
5842;DHT22;2947;52.276;9.946;2023-07-09T10:50:39;34.40;99.90
5842;DHT22;2947;52.276;9.946;2023-07-09T10:53:16;34.20;99.90
5842;DHT22;2947;52.276;9.946;2023-07-09T10:55:58;34.10;99.90
5842;DHT22;2947;52.276;9.946;2023-07-09T11:01:40;34.40;99.90
5842;DHT22;2947;52.276;9.946;2023-07-09T11:07:12;34.50;99.90
5842;DHT22;2947;52.276;9.946;2023-07-09T11:09:43;34.30;99.90
5842;DHT22;2947;52.276;9.946;2023-07-09T11:12:19;34.40;99.90
5842;DHT22;2947;52.276;9.946;2023-07-09T11:14:56;34.40;99.90
5842;DHT22;2947;52.276;9.946;2023-07-09T11:17:27;34.30;99.90
5842;DHT22;2947;52.276;9.946;2023-07-09T11:19:56;34.30;99.90
5842;DHT22;2947;52.276;9.946;2023-07-09T11:22:50;34.40;99.90
5842;DHT22;2947;52.276;9.946;2023-07-09T11:25:44;34.70;99.90
5842;DHT22;2947;52.276;9.946;2023-07-09T11:28:11;34.60;99.90
5842;DHT22;2947;52.276;9.946;2023-07-09T11:30:54;34.80;99.90
5842;DHT22;2947;52.276;9.946;2023-07-09T11:33:26;35.10;99.90
5842;DHT22;2947;52.276;9.946;2023-07-09T11:36:06;35.70;99.90
5842;DHT22;2947;52.276;9.946;2023-07-09T11:38:45;35.20;99.90
5842;DHT22;2947;52.276;9.946;2023-07-09T11:41:38;34.50;99.90
5842;DHT22;2947;52.276;9.946;2023-07-09T11:44:19;35.20;99.90
5842;DHT22;2947;52.276;9.946;2023-07-09T11:47:17;35.40;99.90
5842;DHT22;2947;52.276;9.946;2023-07-09T11:50:04;35.10;99.90
5842;DHT22;2947;52.276;9.946;2023-07-09T11:55:44;35.30;99.90
5842;DHT22;2947;52.276;9.946;2023-07-09T11:58:14;35.60;99.90
5842;DHT22;2947;52.276;9.946;2023-07-09T12:00:47;36.10;99.90
5842;DHT22;2947;52.276;9.946;2023-07-09T12:03:40;35.70;99.90
5842;DHT22;2947;52.276;9.946;2023-07-09T12:06:29;35.70;99.90
5842;DHT22;2947;52.276;9.946;2023-07-09T12:08:57;35.70;99.90
5842;DHT22;2947;52.276;9.946;2023-07-09T12:14:09;35.80;99.90
5842;DHT22;2947;52.276;9.946;2023-07-09T12:16:39;35.80;99.90
5842;DHT22;2947;52.276;9.946;2023-07-09T12:19:08;35.80;99.90
5842;DHT22;2947;52.276;9.946;2023-07-09T12:21:38;36.00;99.90
5842;DHT22;2947;52.276;9.946;2023-07-09T12:26:58;35.90;99.90
5842;DHT22;2947;52.276;9.946;2023-07-09T12:29:34;35.90;99.90
5842;DHT22;2947;52.276;9.946;2023-07-09T12:32:11;35.90;99.90
5842;DHT22;2947;52.276;9.946;2023-07-09T12:34:39;36.00;99.90
5842;DHT22;2947;52.276;9.946;2023-07-09T12:37:07;36.10;99.90
5842;DHT22;2947;52.276;9.946;2023-07-09T12:39:41;36.10;99.90
5842;DHT22;2947;52.276;9.946;2023-07-09T12:42:33;36.00;99.90
5842;DHT22;2947;52.276;9.946;2023-07-09T12:44:59;36.20;99.90
5842;DHT22;2947;52.276;9.946;2023-07-09T12:47:25;36.20;99.90
5842;DHT22;2947;52.276;9.946;2023-07-09T12:50:08;36.10;99.90
5842;DHT22;2947;52.276;9.946;2023-07-09T12:52:46;36.10;99.90
5842;DHT22;2947;52.276;9.946;2023-07-09T12:55:21;36.50;99.90
5842;DHT22;2947;52.276;9.946;2023-07-09T12:57:48;36.10;99.90
5842;DHT22;2947;52.276;9.946;2023-07-09T13:00:15;36.10;99.90
5842;DHT22;2947;52.276;9.946;2023-07-09T13:02:42;35.90;99.90
5842;DHT22;2947;52.276;9.946;2023-07-09T13:05:23;36.90;99.90
5842;DHT22;2947;52.276;9.946;2023-07-09T13:07:52;35.90;99.90
5842;DHT22;2947;52.276;9.946;2023-07-09T13:10:38;35.80;99.90
5842;DHT22;2947;52.276;9.946;2023-07-09T13:13:06;35.70;99.90
5842;DHT22;2947;52.276;9.946;2023-07-09T13:15:43;35.60;99.90
5842;DHT22;2947;52.276;9.946;2023-07-09T13:18:13;35.60;99.90
5842;DHT22;2947;52.276;9.946;2023-07-09T13:20:42;35.50;99.90
5842;DHT22;2947;52.276;9.946;2023-07-09T13:23:17;36.60;99.90
5842;DHT22;2947;52.276;9.946;2023-07-09T13:25:44;35.40;99.90
5842;DHT22;2947;52.276;9.946;2023-07-09T13:28:17;35.30;99.90
5842;DHT22;2947;52.276;9.946;2023-07-09T13:30:50;35.30;99.90
5842;DHT22;2947;52.276;9.946;2023-07-09T13:33:17;35.30;99.90
5842;DHT22;2947;52.276;9.946;2023-07-09T13:35:44;35.20;99.90
5842;DHT22;2947;52.276;9.946;2023-07-09T13:38:13;35.10;99.90
5842;DHT22;2947;52.276;9.946;2023-07-09T13:40:40;35.00;99.90
5842;DHT22;2947;52.276;9.946;2023-07-09T13:43:13;35.00;99.90
5842;DHT22;2947;52.276;9.946;2023-07-09T13:45:39;35.10;99.90
5842;DHT22;2947;52.276;9.946;2023-07-09T13:48:17;35.10;99.90
5842;DHT22;2947;52.276;9.946;2023-07-09T13:50:46;35.00;99.90
5842;DHT22;2947;52.276;9.946;2023-07-09T13:53:17;35.00;99.90
5842;DHT22;2947;52.276;9.946;2023-07-09T13:55:44;34.90;99.90
5842;DHT22;2947;52.276;9.946;2023-07-09T13:58:13;34.80;99.90
5842;DHT22;2947;52.276;9.946;2023-07-09T14:00:41;34.80;99.90
5842;DHT22;2947;52.276;9.946;2023-07-09T14:03:20;34.70;99.90
5842;DHT22;2947;52.276;9.946;2023-07-09T14:05:48;34.70;99.90
5842;DHT22;2947;52.276;9.946;2023-07-09T14:08:14;34.60;99.90
5842;DHT22;2947;52.276;9.946;2023-07-09T14:10:41;34.60;99.90
5842;DHT22;2947;52.276;9.946;2023-07-09T14:13:14;35.40;99.90
5842;DHT22;2947;52.276;9.946;2023-07-09T14:15:41;34.50;99.90
5842;DHT22;2947;52.276;9.946;2023-07-09T14:18:19;34.70;99.90
5842;DHT22;2947;52.276;9.946;2023-07-09T14:20:46;34.60;99.90
5842;DHT22;2947;52.276;9.946;2023-07-09T14:23:14;34.60;99.90
5842;DHT22;2947;52.276;9.946;2023-07-09T14:25:42;34.60;99.90
5842;DHT22;2947;52.276;9.946;2023-07-09T14:28:19;34.60;99.90
5842;DHT22;2947;52.276;9.946;2023-07-09T14:30:46;34.50;99.90
5842;DHT22;2947;52.276;9.946;2023-07-09T14:33:18;35.40;99.90
5842;DHT22;2947;52.276;9.946;2023-07-09T14:35:45;34.30;99.90
5842;DHT22;2947;52.276;9.946;2023-07-09T14:38:22;34.40;99.90
5842;DHT22;2947;52.276;9.946;2023-07-09T14:40:51;34.40;99.90
5842;DHT22;2947;52.276;9.946;2023-07-09T14:43:18;34.30;99.90
5842;DHT22;2947;52.276;9.946;2023-07-09T14:45:44;34.30;99.90
5842;DHT22;2947;52.276;9.946;2023-07-09T14:48:14;34.20;99.90
5842;DHT22;2947;52.276;9.946;2023-07-09T14:50:42;34.20;99.90
5842;DHT22;2947;52.276;9.946;2023-07-09T14:53:13;34.30;99.90
5842;DHT22;2947;52.276;9.946;2023-07-09T14:55:42;34.40;99.90
5842;DHT22;2947;52.276;9.946;2023-07-09T14:58:15;34.30;99.90
5842;DHT22;2947;52.276;9.946;2023-07-09T15:00:44;34.60;99.90
5842;DHT22;2947;52.276;9.946;2023-07-09T15:03:19;34.20;99.90
5842;DHT22;2947;52.276;9.946;2023-07-09T15:05:46;34.20;99.90
5842;DHT22;2947;52.276;9.946;2023-07-09T15:08:17;34.30;99.90
5842;DHT22;2947;52.276;9.946;2023-07-09T15:10:44;34.20;99.90
5842;DHT22;2947;52.276;9.946;2023-07-09T15:13:16;34.20;99.90
5842;DHT22;2947;52.276;9.946;2023-07-09T15:15:48;34.10;99.90
5842;DHT22;2947;52.276;9.946;2023-07-09T15:18:15;35.00;99.90
5842;DHT22;2947;52.276;9.946;2023-07-09T15:20:56;34.10;99.90
5842;DHT22;2947;52.276;9.946;2023-07-09T15:23:23;34.00;99.90
5842;DHT22;2947;52.276;9.946;2023-07-09T15:25:50;34.00;99.90
5842;DHT22;2947;52.276;9.946;2023-07-09T15:28:16;34.00;99.90
5842;DHT22;2947;52.276;9.946;2023-07-09T15:30:42;34.00;99.90
5842;DHT22;2947;52.276;9.946;2023-07-09T15:33:26;34.00;99.90
5842;DHT22;2947;52.276;9.946;2023-07-09T15:35:52;34.10;99.90
5842;DHT22;2947;52.276;9.946;2023-07-09T15:40:47;34.10;99.90
5842;DHT22;2947;52.276;9.946;2023-07-09T15:43:14;34.10;99.90
5842;DHT22;2947;52.276;9.946;2023-07-09T15:45:46;33.90;99.90
5842;DHT22;2947;52.276;9.946;2023-07-09T15:48:32;33.90;99.90
5842;DHT22;2947;52.276;9.946;2023-07-09T15:51:02;33.90;99.90
5842;DHT22;2947;52.276;9.946;2023-07-09T15:53:29;33.80;99.90
5842;DHT22;2947;52.276;9.946;2023-07-09T15:56:01;35.50;99.90
5842;DHT22;2947;52.276;9.946;2023-07-09T15:58:41;33.80;99.90
5842;DHT22;2947;52.276;9.946;2023-07-09T16:01:14;33.80;99.90
5842;DHT22;2947;52.276;9.946;2023-07-09T16:03:50;33.80;99.90
5842;DHT22;2947;52.276;9.946;2023-07-09T16:06:17;33.80;99.90
5842;DHT22;2947;52.276;9.946;2023-07-09T16:08:44;34.10;99.90
5842;DHT22;2947;52.276;9.946;2023-07-09T16:11:16;33.80;99.90
5842;DHT22;2947;52.276;9.946;2023-07-09T16:13:43;33.80;99.90
5842;DHT22;2947;52.276;9.946;2023-07-09T16:16:14;32.00;99.90
5842;DHT22;2947;52.276;9.946;2023-07-09T16:18:43;33.60;99.90
5842;DHT22;2947;52.276;9.946;2023-07-09T16:21:30;33.60;99.90
5842;DHT22;2947;52.276;9.946;2023-07-09T16:23:57;33.60;99.90
5842;DHT22;2947;52.276;9.946;2023-07-09T16:26:26;33.60;99.90
5842;DHT22;2947;52.276;9.946;2023-07-09T16:28:52;33.60;99.90
5842;DHT22;2947;52.276;9.946;2023-07-09T16:31:18;33.60;99.90
5842;DHT22;2947;52.276;9.946;2023-07-09T16:33:43;33.60;99.90
5842;DHT22;2947;52.276;9.946;2023-07-09T16:36:17;33.50;99.90
5842;DHT22;2947;52.276;9.946;2023-07-09T16:38:45;33.50;99.90
5842;DHT22;2947;52.276;9.946;2023-07-09T16:41:11;33.50;99.90
5842;DHT22;2947;52.276;9.946;2023-07-09T16:43:42;33.50;99.90
5842;DHT22;2947;52.276;9.946;2023-07-09T16:46:22;33.50;99.90
5842;DHT22;2947;52.276;9.946;2023-07-09T16:48:49;33.40;99.90
5842;DHT22;2947;52.276;9.946;2023-07-09T16:51:16;33.40;99.90
5842;DHT22;2947;52.276;9.946;2023-07-09T16:53:41;33.40;99.90
5842;DHT22;2947;52.276;9.946;2023-07-09T16:56:12;33.30;99.90
5842;DHT22;2947;52.276;9.946;2023-07-09T16:58:38;33.30;99.90
5842;DHT22;2947;52.276;9.946;2023-07-09T17:01:05;33.30;99.90